Race Results for
Showdown at Sugar NMBS #2
Sugar Mountain, NC
(Event Information)
Downhill on 06/10/2006

Note: Ranking points are NOT upgrade points. An explanation of ranking points can be found here.


Men - SP - Junior - 1-16

 Place Points NameCity, StateTime USAC #BibTeam
1 Conor Lockwood   Charlotte, VT05:31.38 192120  624 
2 Charles Mickel   Greenville, SC05:48.39 229192  889 

Men - SP - Junior - 1-18

 Place Points NameCity, StateTime USAC #BibTeam
1 Jonathan Bowdish   Weybridge, VT05:02.14 224091  525 
2 Benjamin McMechen   Black Mountain, NC05:07.52 233559  844 
3 TYLER CROUSE   05:25.98  716 
4 ERIC MCPETERS   05:50.49  463 1337 RACIN
5 PHILIP NOTO   05:53.89  772 
6 SEBASTIAN HERNANDEZ   06:52.16  968 
7 Jonathan Strickland   Clayton, NC07:17.44 213212  751 SWD/ICW/MA
DNF TAYLOR STROUD   DNF  738 

Men - SP - Senior - 19-24

 Place Points NameCity, StateTime USAC #BibTeam
1 WILL ECKHARDT   04:51.21  631 
2 Alex Ohman   Knoxville, TN04:51.99 210887  724 BIKESENJAV
3 STEPHEN CZAPIGA   04:59.24  775 GPR RACING
4 Steven Trottier   Lewisville, NC05:11.86 190301  771 
5 DAVID ASHWORTH   05:16.38  943 BACK COUNT
6 ANDONI JARDINEZ   05:26.61  808 GUSTO CYCL
7 Joseph Grimes   Boone, NC05:33.20 242647  838 COLUMBUS B
8 CARL TANNENBAUM   05:47.22  538 1337
9 ROBERT MCCAW   05:49.36  684 
10 MARIO HERNANDEZ   06:01.21  969 
11 Shawn Kane   Jacksonville, NC06:10.80 193793  955 NC STATE C
12 JOSH HEIMANN   09:52.90  886 REICYCLES

Men - SP - Senior - 25-29

 Place Points NameCity, StateTime USAC #BibTeam
1 Travis Williams   Baltimore, MD05:07.18 194102  910 
2 BRANDON BARBER   05:44.44  887 BAR HUMP W
3 AARON KACHERIK   06:47.28  782 GRETNA BIK

Men - SP - Master - 30-34

 Place Points NameCity, StateTime USAC #BibTeam
1 JOSH HENNESSEY   04:59.78  840 
2 BRYAN COURTRIGHT   05:53.00  583 
3 Lloyd Barnett   Tucker, GA06:03.56 184505  735 
4 Zachary Gavin   Browns Summit, NC06:11.21 141644  816 PAULS CYCL
5 TIMOTHY BARRETT JR   06:23.03  448 
DNF SHANNON STOWERS   DNF  759 
DNF CHAD WHICHARD   DNF  499 

Men - SP - Master - 35-39

 Place Points NameCity, StateTime USAC #BibTeam
1 Todd Gue   Glenwood, MD04:54.08 115538  903 
2 LAWRENCE WELLS   05:06.04  404 
3 Jon Naylor   Indian Land, SC05:31.25 75691  748 TLD
4 MICHAEL STORM   05:37.99  965 
5 MARK MALESKI   05:45.63  869 
6 DAVID DOBSON   05:46.42  515 
7 John Coffman   Bowling Green, KY06:23.98 96750  721 

Men - SP - Master - 40-49

 Place Points NameCity, StateTime USAC #BibTeam
1 STEPHEN ALONSO   05:08.75  457 ATLANTA PR
2 JOHN GRAILHEN   05:41.71  828 DLB.D
3 Glenn Hawks   Indian Harbour Beach, FL05:49.75 246936  511 FILZBUILT
4 Bruce Lipski   Leesburg, VA06:14.59 224212  557 
5 Michael Rothenbeck   Easton, PA06:23.56 218912  744 ACTION WHE
6 CARTER STICKNEY   06:49.51  841 GRAVITYPIL
7 THOMAS MITCHELL   07:20.92  970 

Men - SP - Master - 50-99

 Place Points NameCity, StateTime USAC #BibTeam
1 VINCENT BRADLEY   06:36.36  767 

Men - Cat 1/2/3 - Senior - 19-29

 Place Points NameCity, StateTime USAC #BibTeam
1 John Stewart   Baltimore, MD06:36.73 214200  739 YOUSGUYS.O
2 Maximilian (Max) Hoener   Rhinebeck, NY06:46.73 154637  727 FLC
3 Michael Thomas   Randleman, NC06:52.62 187985  709 SEI/MICHEL
4 Trevor Downing   Durango, CO06:53.78 161859  207 BV BIKES/S
5 Park Baker   Brevard, NC07:00.67 224953  939 SYCAMORE C
6 Tom Murphy   Cary, NC07:14.86 120487  712 YETI/FOX
7 KEITH BARBER   07:21.92  527 
8 Phillip Prater   Little Rock, AR07:28.80 230091  812 
9 Nicholas Leigh   Springfield, MA07:35.06 189574  560 IRON HORSE
10 PETER GRAFF   07:35.34  486 
11 DAVID ECKHARDT   07:41.17  732 
12 MICKEY GRANT   07:54.83  942 
13 JOHN THOMAS   08:36.32  655 
14 NICHOLAS DIERKES   09:56.38  633 

Men - Cat 1/2/3 - Master - 30-39

 Place Points NameCity, StateTime USAC #BibTeam
1 Brandon Sloan   Morgan Hill, CA06:23.51 32941  322 SPECIALIZE
2 TIM RICHARDSON   06:29.35  885 HUGH JASS
3 Andy DeVault   Martinsville, VA06:42.78 133063  634 276 RACING
4 JOSH HENNESSEY   06:44.45  840 
5 Tom McDonnell   Sugar Grove, NC06:52.40 150598  865 BOONE BIKE
6 Bryan Mitchell   Northville, MI07:11.85 160158  799 KONA MIDWE
7 JAMES BENDER   07:21.23  921 
8 Mark Overby   Chapel Hill, NC07:21.36 247907  746 RMS
9 Jeff Dein   Macon, GA07:21.91 95381  789 HCOR.NET/F
10 Ashley Appling   Suwanee, GA07:23.18 191105  492 T2 BIKES
11 Ed Buchan   Raleigh, NC07:25.56 222755  589 SPEEDH
12 BRAD JIMISON   07:35.07  930 PEACHTREE
13 Todd Gue   Glenwood, MD07:38.36 115538  903 
14 Scott Johnson   Durham, NC07:51.63 121482  565 TROLL RACI
15 Campbell Newport   Deerfield Beach, FL08:42.15 179880  552 
16 JASON BECKMAN   08:43.81  848 
17 DAVID BLALOCK   09:59.96  430 
18 O'Neill Ryan   Asheville, NC10:52.20 30998  763 ZCC
19 VINNIE VIRZI   10:54.66  842 GRAVITYPIL
20 MARK MALESKI   11:18.93  869 

Men - Cat 1/2/3 - Master - 40-49

 Place Points NameCity, StateTime USAC #BibTeam
1 Richard Machycek   Sherwood, AR06:35.46 22016  952 ARKANSAS C
2 Bill Scott   Orange, CA07:02.53 226977  438 SHO-AIR
3 STEVEN HOOVER   07:55.73  820 TRE-VW FAC
4 Mark French   Louisville, KY08:02.52 128970  468 KYMBA
5 STEPHEN ALONSO   08:33.44  457 ATLANTA PR

Men - Cat 1/2/3 - Master - 50-99

 Place Points NameCity, StateTime USAC #BibTeam
1 Timothy Messersmith   York, PA07:40.81 128500  821 TREK-VW
2 Scott Lideen   Phoenix, AZ08:13.14 142637  422 DP AIR/SAN
3 John Lilly   Blue Ridge, GA12:34.44 201102  861 CYCLE SOUT
4 Bruce McCann   Loveland, OH16:37.49 127940  597 TEAM AMIGO
5 James Van Manen   Ventura, CA17:32.53 36453  450 BICYCLES O

Men - EX - Junior - 1-16

 Place Points NameCity, StateTime USAC #BibTeam
1 Taylor Calvert   San Luis Obispo, CA04:49.54 218535  586 SANTA CRUZ
2 Taylor Fauntleroy   Santa Barbara, CA05:03.05 234529  680 SPY/KICKER
3 VINCE WATERS   05:18.77  531 1337
4 Andy Becker   Santa Barbara, CA05:23.67 217150  433 CHUMBA RAC

Men - EX - Junior - 1-18

 Place Points NameCity, StateTime USAC #BibTeam
1 Daniel Hultgen   Santa Barbara, CA04:02.95 184908  700 MICHELIN/S
2 Logan Binggeli   Saint George, UT04:05.64 213148  592 CANNONDALE
3 ZAC WILLIAMS   04:07.95  495 
4 Jacob Bergeron   Colorado Springs, CO04:08.48 215410  641 BERGERON
5 Jake Capriotti   Coto De Caza, CA04:08.73 213147  689 MONGOOSE/T
6 NIC DENT   04:10.28  580 
7 Timothy Price   Great Falls, VA04:12.53 194155  547 
8 Benjamin Hulse   Mooresville, NC04:14.76 211866  992 
9 Hank Cadle   Lake Forest, CA04:21.09 191080  791 AMP'D RACI
10 Steven McCullough   Kalispell, MT04:21.77 198700  418 GIANT/FOX/
11 John Hauer   Santa Cruz, CA04:27.52 205936  572 WTB SPECIA
12 Taylor Lideen   Phoenix, AZ04:31.93 210964  421 DP AIR/SAN
13 Burke Saunders   Great Falls, VA04:33.27 200536  678 VTS/MAXXIS
14 Jesse Belt   Fayetteville, AR04:36.50 225811  683 MOREWOOD/M
15 TJ Fisker   Tucson, AZ04:38.62 200762  673 RPM/YETI
16 Paul Beardsley   Ripton, VT04:39.98 229383  593 
17 P Post   Newton, NJ04:44.88 213804  694 LEES-MCRAE
18 Jonathan Kranzel   Mount Carmel, PA04:46.09 226078  718 READING RA
19 Jeff Cayley   Santa Clarita, CA04:47.99 219853  797 MOREWOOD/6
20 Amado Stachenfeld   Berkeley, CA04:49.64 209079  540 TEAM PLANE
21 Andrew Kern   Albuquerque, NM04:49.86 244275  663 
22 Eric Witthans   Fayetteville, AR04:50.48 229453  681 FBC/UTOPIA
23 Chris Myers   Colorado Springs, CO04:51.34 225550  773 BRODIE BIK
24 Trace Lapid   Aptos, CA04:53.58 211533  561 SANTA CRUZ
25 Jason Eaton   Cary, NC04:54.84 200137  743 
26 Charles (Casey) Baker   Great Falls, VA05:07.86 213819  594 
27 William Creyer   Fayetteville, AR05:08.61 211801  682 UTOPIA/SIC
28 PRESTON MOORE   06:05.33  620 
DNF John Swanguen   San DiegoDNF 175203  539 HARO-TLD-N
DNF Spenser Bruce   Santa Barbara, CADNF 211529  427 
DNF PAT CLAPP   DNF  987 X-FUSION

Men - EX - Senior - 19-24

 Place Points NameCity, StateTime USAC #BibTeam
1 James Valdez   El Paso, TX04:19.50 226564  500 
2 Art Widmar   Boise, ID04:41.44 215563  715 NORCO/BIKE
3 Matt Tenure   Newport Beach, CA04:41.58 234095  662 OAKLEY/MAX
4 Tim White   Colchester, VT04:48.32 201948  496 
5 Michael Thomas   Randleman, NC04:50.66 187985  709 SEI/MICHEL
6 Neil Beytagh   Fletcher, NC04:53.71 208441  685 TEAM MOREW
7 KEITH BARBER   05:06.85  527 
DNF Caleb Cambern   Boulder, CODNF 230230  522 RUBBER DOW

Men - EX - Senior - 25-29

 Place Points NameCity, StateTime USAC #BibTeam
1 Matt Griffin   Greenville, SC04:29.35 148978  800 SEI RACING
2 John Stewart   Baltimore, MD04:34.85 214200  739 YOUSGUYS.O
3 Ryan DeLong   Eureka, CA04:37.55 156697  581 BIOWHEELS
4 Matthew Gerlins   Easton, PA04:45.04 213782  697 READINGRAC
5 Justin Fraczek   New Milford, CT04:46.33 194357  667 MOREWOOD B
6 TODD NICHOLAS   04:55.44  781 GRETNA BIK
7 Andrew Farrell   Boston , MA05:10.77 243528  679 
8 Brady Owens   Apo, AE05:15.54 193564  788 HCOR.NET
9 Michael Crnjarich   Beaver, PA06:11.68 220249  518 READING RA

Men - EX - Master - 30-34

 Place Points NameCity, StateTime USAC #BibTeam
1 SHAJJAN RAJBANSHI   04:42.39  883 
2 Matthew Conto   Bishop, GA04:59.02 164529  777 TIFOSI OPT
3 Ashley Appling   Suwanee, GA05:01.61 191105  492 T2 BIKES
4 Donald Roberts   05:13.98 214193  729 ERNIES BIK
5 Will Karr   Baltimore, MD05:22.39 229598  839 TRANSITION
6 Jeff Dein   Macon, GA05:39.47 95381  789 HCOR.NET/F
7 Nick Lyons   Scottsville, KY06:00.78 135817  720 DOWN IN TH
DNF Ariel Lindsley   Aptos, CADNF 134618  670 MAVERICK
DNF Christopher Filipiak   Asheville, NCDNF 176053  802 KONA MIDWE

Men - EX - Master - 35-39

 Place Points NameCity, StateTime USAC #BibTeam
1 Daniel Shaner   Greensboro, NC04:35.24 184277  978 PACELINE
2 Matthew Adams   Moravian Falls, NC04:37.80 213371  595 ADAMS RACI
3 Andy DeVault   Martinsville, VA04:41.08 133063  634 276 RACING
4 Nathanial Bartholomew   Pottstown, PA04:43.95 2773  706 SPINTECK.C
5 Anthony Pajakinas   Douglassville, PA04:44.97 118437  696 READING RA
6 Lawrence Klein   Marietta, GA04:48.36 193887  723 FAT CITY C
7 RON VonKENBURG   04:49.26  1021 MOB
8 Ed Buchan   Raleigh, NC04:50.48 222755  589 SPEEDH
9 William (Bill) Grabowski   Fletcher, NC04:50.86 132141  722 CAROLINA F
10 Steven Kaufman   Wake Forest, NC04:54.29 151749  482 SQUIRRELLY
11 Mark Overby   Chapel Hill, NC04:55.35 247907  746 RMS
12 Eric Charles   York, PA05:43.11 131195  757 SUN RIMS/M
13 Bryan Mitchell   Northville, MI05:47.65 160158  799 KONA MIDWE
14 KEVIN GORDON   06:03.39  849 
DNF Matthew Mills   Greensburg, KYDNF 98186  728 CKY RACING

Men - EX - Master - 40-44

 Place Points NameCity, StateTime USAC #BibTeam
1 Jerry Hayes   Burlington, NC04:37.19 86359  979 PACELINE
2 Joel Leyva   Los Gatos, CA05:07.09 168323  558 INTEL CORP
3 Jon Martin   Arcata, CA05:24.88 169689  554 DARK HORSE

Men - EX - Master - 45-49

 Place Points NameCity, StateTime USAC #BibTeam
1 Dane Clay   Reading, PA04:22.20 200205  698 READING RA
2 Rick Wiles   Newnan, GA04:28.03 122339  726 FAT CITY C
3 Les Price   Scottsdale, AZ05:00.32 177801  452 NO BRAKES
4 David Barclay   Boise, ID06:23.38 2552  832 BIKES 2 BO

Men - EX - Master - 50-54

 Place Points NameCity, StateTime USAC #BibTeam
1 Scott Lideen   Phoenix, AZ05:44.96 142637  422 DP AIR/SAN
2 Michael Sabin   Sandpoint, ID05:53.13 31023  758 ADIDAS/CON
3 Joel Creed   Franklin, IN06:00.80 146083  636 

Men - EX - Master - 55-59

 Place Points NameCity, StateTime USAC #BibTeam
1 Stefan Cihylik   Allentown, PA05:26.92 181461  521 

Men - EX - Master - 65-99

 Place Points NameCity, StateTime USAC #BibTeam
1 Gerardo Florez   Ponte Vedra, FL05:35.92 144584  469 

Men - BG - Junior - 1-16

 Place Points NameCity, StateTime USAC #BibTeam
1 J Frith   Martinsville, VA05:15.68 201434  575 CYCLES DE
2 NICHOLAS HEIDMANN   05:35.59  871 REALITY BI
3 Alex Bowdish   Weybridge, VT05:44.96 231814  524 
4 NATHAN WILSON   05:53.95  609 
5 SETH CALLAHAN   06:38.89  587 
6 WADE COLLINS   07:55.55  584 

Men - BG - Junior - 1-18

 Place Points NameCity, StateTime USAC #BibTeam
1 SAM GODFREY   06:02.87  741 
2 CHRISTOPHER BUCKLEY   06:20.73  588 
3 DILLON NANCE   07:00.00  742 
4 BROCK OGLESBY   07:06.65  776 

Men - BG - Senior - 19-24

 Place Points NameCity, StateTime USAC #BibTeam
1 Robert Marion   Mount Airy, NC05:30.81 220597  665 PRO HEALTH
2 MICHAEL MARTIN   05:57.30  870 REALITY BI
3 ANDREW LOWD   08:19.71  556 
4 PATRICK FAIN   10:04.68  795 X-FUSION

Men - BG - Senior - 25-29

 Place Points NameCity, StateTime USAC #BibTeam
1 Andrew Lynch   Winston Salem, NC06:03.27 180609  625 PRO HEALTH
2 IAN BROWN   10:47.66  590 FAT KIDS/M

Men - BG - Master - 30-34

 Place Points NameCity, StateTime USAC #BibTeam
1 JASON SPRAGUE   09:01.67  674 SEBAGO OUT
DNF JOSHUA BAGWELL   DNF  950 
DNF BENJY BROWN   DNF  951 

Men - BG - Master - 35-39

 Place Points NameCity, StateTime USAC #BibTeam
1 david wilson   Martinsville, VA05:29.05 247967  882 
2 JAMES FITZGERALD   06:11.44  856 
3 GARY COLLINS   06:59.00  585 
DNF DAVID BLALOCK   DNF  430 
DNF JOEL JOHNSON   DNF  509 TEAM 276

Men - BG - Master - 40-49

 Place Points NameCity, StateTime USAC #BibTeam
1 KERRY HUGHES   07:03.57  714 
DNF Clark Wright   Auburn, CADNF 234837  402 COMMENCAL

Men - BG - Master - 50-99

 Place Points NameCity, StateTime USAC #BibTeam
1 Bruce McCann   Loveland, OH15:17.11 127940  597 TEAM AMIGO

Men - Pro - Senior

 Place Points NameCity, StateTime USAC #BibTeam
1 JOHN KIRKCALDIE   05:38.43  TEAM MAXXI
2 Ross Schnell   Grand Jct, CO05:43.50 99965  53 TREK/VW
3 ADAM CRAIG   05:56.10  973 
4 Ariel Lindsley   Aptos, CA06:00.18 134618  670 MAVERICK
5 Mike West   Boulder, CO06:01.31 37786  899 MAVERICK
6 Christopher Herndon   Pisgah Forest, NC06:03.66 96111  686 CANE CREEK
7 Hugh Taylor   Candler, NC06:06.17 119232  778 
8 WAYLON SMITH   06:08.15  771 KHS
9 Christopher Eatough   Ellicott City, MD06:13.00 97632  900 TREK/VW
10 Justin Graves   Arcata, CA06:20.24 180154  333 REVOLUTION
11 Sven Martin   Newport Beach, CA06:23.82 173862  948 HONDA/IRON
12 Dustin Greer   Cedar Hill, TN06:26.65 178240  215 HONEY STIN
13 David Wood   Hendersonville, NC06:26.74 205937  707 BIKE DOCTO
14 Marvin Scanland   Hampstead, MD06:31.73 163826  740 YOUSGUYS.O
15 Jorel Hendershot   Mears, MI06:35.50 116140  470 BEAR NAKED
16 Brandon Draugelis   Shippensburg, PA06:54.16 179397  493 BEAR NAKED
17 Aaron Bradford   Santa Cruz, CA06:56.25 156335  695 LEES MCRAE
18 Michael Valach   Snowshoe, WV07:03.51 82951  730 VIC'S TREE
19 David KlaassenVanOorschot   Riverside, CA07:16.83 154642  925 KHS BICYCL
20 Christopher Filipiak   Asheville, NC07:17.35 176053  802 KONA MIDWE
21 Cecil Linder   Greenville, SC07:33.31 155198  332 SEI RACING
DNF Bryan Fawley   Denton, TXDNF 198394  857 WHEELSINMO
DNF Donald Galligher   Bloomington, INDNS 180004  204 CHIROPOWER

Men - Junior - JR - 1-10

 Place Points NameCity, StateTime USAC #BibTeam
1 Kees Inserni   Corpus Christi, TX14:31.76 217486  907 MAGIC CYCL

Men - Junior - JR - 1-18

 Place Points NameCity, StateTime USAC #BibTeam
1 Taylor Lideen   Phoenix, AZ06:44.75 210964  421 DP AIR/SAN
2 P Post   Newton, NJ06:54.13 213804  694 LEES-MCRAE
3 Art Nelsen   Boulder, CO07:06.74 211465  461 TOKYO JO
4 NATHAN WILSON   07:36.30  609 
5 SETH CALLAHAN   08:26.28  587 
6 JACOB BRACKEN   09:30.41  966 SYCAMORE C
7 JOHN HELME   10:38.28  702 

Men - Junior - JR - 11-12

 Place Points NameCity, StateTime USAC #BibTeam
1 Hunter Becker   Santa Barbara, CA05:39.79 217149  432 
2 CODY MCMECHEN   10:35.97  876 

Men - Junior - JR - 13-14

 Place Points NameCity, StateTime USAC #BibTeam
1 MICKEY MCMECHEN   07:11.97  846 
2 JACOB BRACKEN   07:59.01  966 
3 ALEX HILL   10:17.97  570 CANE CREEK
DNF Christian Wright   Auburn, CADNF 234304  403 COMMENCAL

Women - SP - Junior - 1-18

 Place Points NameCity, StateTime USAC #BibTeam
1 Kristine Koch   East Aurora, NY07:07.91 203473  893 TEAM CMI/S

Women - SP - Senior - 19-29

 Place Points NameCity, StateTime USAC #BibTeam
1 Olivia Maurey   Port Orange Fl.14:24.77 233753  616 LEES-MCRAE

Women - SP - Master - 30-39

 Place Points NameCity, StateTime USAC #BibTeam
1 Kristin Andrs   Petersburg, VA08:52.80 200540  807 CYCOR/CONT

Women - Cat 1/2/3 - Senior - 19-29

 Place Points NameCity, StateTime USAC #BibTeam
1 AMANDA PILLING   08:47.03  803 KONA MIDWE
2 Maureen Kunz   Oakland, CA09:18.74 206973  465 CONTENT WO
3 Lianna Miller   Colorado Springs, CO10:18.23 218389  619 
4 KLARA VRBOVA   10:36.53  648 

Women - Cat 1/2/3 - Master - 30-39

 Place Points NameCity, StateTime USAC #BibTeam
1 Lisa Beckman   Oakland, MD10:07.52 213829  847 
2 Kristin Andrs   Petersburg, VA10:30.97 200540  807 CYCOR/CONT
3 KIM JOCHL   11:00.65  446 JOCHL RACI

Women - Cat 1/2/3 - Master - 40-99

 Place Points NameCity, StateTime USAC #BibTeam
1 Vicki Koch   West Falls, NY10:43.56 200770  892 TEAM CMI/S

Women - EX - Senior - 19-29

 Place Points NameCity, StateTime USAC #BibTeam
1 Sondra Williamson   Carpinteria, CA06:22.54 218537  608 SPECIALIZE
DNF Abigail Hippely   Santa Cruz, CADNF 184801  669 MAVERICK

Women - EX - Master - 35-39

 Place Points NameCity, StateTime USAC #BibTeam
1 Ellen Adams   Moravian Falls, NC05:56.32 200683  596 ADAMS RACI

Women - EX - Master - 45-49

 Place Points NameCity, StateTime USAC #BibTeam
1 Vicki Koch   West Falls, NY05:33.83 200770  892 TEAM CMI/S

Women - BG - Master - 30-39

 Place Points NameCity, StateTime USAC #BibTeam
1 PAT NOIBOONTURM   08:59.07  713 

Women - Pro - Senior

 Place Points NameCity, StateTime USAC #BibTeam
1 Susan Haywood   Davis, WV06:43.46 117585  901 TREK/VW
2 Anka Martin   Laguna Beach, CA07:43.20 172194  880 HONDA/IRON
3 Kote Driscoll   San Luis Obispo, CA07:44.91 206129  675 CHUMBA/BOO
4 Chenoah Hendershot   Mears, MI08:52.27 174025  485 BEAR NAKED
5 Monique Hein   Lyons, CO10:30.25 187615  643 LEES-MCRAE
DNF Abigail Hippely   Santa Cruz, CADNS 184801  669 MAVERICK

Women - Junior - JR - 1-10

 Place Points NameCity, StateTime USAC #BibTeam
DNF Alicia Styer   Gettysburg, PADNF 245901  459 VELO BELLA

Women - Junior - JR - 1-18

 Place Points NameCity, StateTime USAC #BibTeam
1 Kristine Koch   East Aurora, NY10:11.90 203473  893 TEAM CMI/S

Women - Junior - JR - 11-12

 Place Points NameCity, StateTime USAC #BibTeam
1 Kiersten Inserni   Corpus Christi, TX14:12.15 208489  908 VELO BELLA

Report missing or incorrect license numbers

Volkswagen
SpyCUOREUSACDFOSMOSierra NevadaBonk BreakerShimano
UCI USA Cycling is the official governing body for all disciplines of competitive cycling in the United States. The 501c3, membership-based organization aims both to achieve sustained success in international cycling competition and to grow competitive cycling in America while delivering an exceptional customer experience.
View Children's Online Privacy Protection Policy
US Olympic Committee